Time;durP1;ratioP1;P1;durP2;ratioP2;P2;SDS_P1;SDS_P2;PMS_P1;PMS_P2;Temp;Humidity;BMP_temperature;BMP_pressure;BME280_temperature;BME280_humidity;BME280_pressure;Samples;Min_cycle;Max_cycle;Signal;HPM_P1;HPM_P2
2022/04/23 00:00:50;;;;;;;17.45;10.05;;;;;;;10.20;68.46;100426.03;5030720;28;20041;-80
2022/04/23 00:03:16;;;;;;;11.98;9.60;;;;;;;10.15;68.37;100420.00;5031780;28;20064;-80
2022/04/23 00:05:41;;;;;;;14.27;10.65;;;;;;;10.11;69.68;100419.19;5030702;28;20025;-80
2022/04/23 00:08:08;;;;;;;13.02;9.48;;;;;;;10.09;68.75;100421.91;5050150;28;20118;-80
2022/04/23 00:10:35;;;;;;;15.80;10.38;;;;;;;10.07;68.77;100425.50;5033741;28;20076;-80
2022/04/23 00:13:00;;;;;;;13.35;10.13;;;;;;;10.08;69.34;100429.88;5050159;28;20057;-80
2022/04/23 00:15:27;;;;;;;13.52;9.68;;;;;;;10.05;69.00;100427.31;5033784;28;20044;-80
2022/04/23 00:17:54;;;;;;;22.80;10.65;;;;;;;10.02;69.77;100425.59;5033745;28;20075;-80
2022/04/23 00:20:19;;;;;;;17.60;10.75;;;;;;;10.00;69.32;100427.41;5050095;28;20028;-80
2022/04/23 00:22:45;;;;;;;14.80;10.20;;;;;;;9.96;69.01;100428.41;5050089;28;20710;-80
2022/04/23 00:25:10;;;;;;;14.00;10.10;;;;;;;9.95;69.86;100429.31;5047451;28;20040;-80
2022/04/23 00:27:35;;;;;;;17.67;11.60;;;;;;;9.92;70.00;100429.41;5038670;28;20068;-80
2022/04/23 00:30:02;;;;;;;17.35;11.32;;;;;;;9.89;70.09;100422.41;5013434;28;20163;-80
2022/04/23 00:32:27;;;;;;;14.90;10.70;;;;;;;9.88;70.36;100427.75;5041675;28;20471;-80
2022/04/23 00:34:53;;;;;;;16.13;11.40;;;;;;;9.85;70.34;100420.75;5049717;28;20135;-80
2022/04/23 00:37:19;;;;;;;14.93;11.80;;;;;;;9.85;70.77;100418.09;5049322;28;20049;-80
2022/04/23 00:39:44;;;;;;;16.98;11.57;;;;;;;9.83;70.54;100419.06;5032995;28;20045;-80
2022/04/23 00:42:11;;;;;;;16.00;11.27;;;;;;;9.80;70.96;100424.44;5049370;28;20025;-80
2022/04/23 00:44:38;;;;;;;16.92;11.55;;;;;;;9.76;71.30;100428.91;5039401;28;20393;-80
2022/04/23 00:47:04;;;;;;;18.05;12.27;;;;;;;9.74;71.23;100419.28;5050591;28;20154;-80
2022/04/23 00:49:30;;;;;;;16.88;11.20;;;;;;;9.73;70.97;100423.72;5049516;28;20112;-79
2022/04/23 00:51:55;;;;;;;16.00;11.68;;;;;;;9.72;70.65;100421.09;5050542;28;20462;-80
2022/04/23 00:54:22;;;;;;;21.27;12.88;;;;;;;9.68;72.04;100420.31;5032554;28;20477;-80
2022/04/23 00:56:48;;;;;;;19.20;12.35;;;;;;;9.67;71.91;100426.50;5049403;28;20131;-80
2022/04/23 00:59:14;;;;;;;19.15;13.13;;;;;;;9.67;71.66;100419.44;5048999;28;20331;-80
2022/04/23 01:01:42;;;;;;;15.45;11.60;;;;;;;9.65;71.15;100421.25;5016342;28;20040;-80
2022/04/23 01:04:09;;;;;;;17.85;13.07;;;;;;;9.63;72.72;100417.78;5048989;28;20037;-80
2022/04/23 01:06:35;;;;;;;15.15;11.27;;;;;;;9.60;71.65;100420.50;5049303;28;20076;-80
2022/04/23 01:09:03;;;;;;;16.13;12.70;;;;;;;9.60;72.58;100428.44;5050170;28;20040;-80
2022/04/23 01:11:29;;;;;;;17.10;12.82;;;;;;;9.61;72.49;100429.28;5050524;28;20235;-80
2022/04/23 01:13:55;;;;;;;16.80;13.32;;;;;;;9.58;72.20;100417.03;5032178;28;20128;-80
2022/04/23 01:16:20;;;;;;;19.60;13.60;;;;;;;9.58;72.82;100426.72;5049025;28;20045;-79
2022/04/23 01:18:46;;;;;;;18.30;13.80;;;;;;;9.59;72.95;100426.69;5049077;28;20170;-80
2022/04/23 01:21:13;;;;;;;19.55;13.32;;;;;;;9.56;72.68;100418.81;5032492;28;20124;-80
2022/04/23 01:23:42;;;;;;;19.92;13.80;;;;;;;9.53;72.98;100423.34;5032296;28;20053;-80
2022/04/23 01:26:09;;;;;;;18.67;14.30;;;;;;;9.54;73.40;100425.91;5042972;28;20202;-81
2022/04/23 01:28:36;;;;;;;17.45;13.02;;;;;;;9.52;73.54;100424.22;5042938;28;20425;-81
2022/04/23 01:31:04;;;;;;;19.92;13.68;;;;;;;9.57;73.34;100427.63;5049501;28;20138;-81
2022/04/23 01:33:32;;;;;;;18.75;13.88;;;;;;;9.52;73.62;100425.13;5028941;28;20385;-81
2022/04/23 01:35:58;;;;;;;18.35;13.80;;;;;;;9.51;72.93;100427.78;5030691;28;20374;-80
2022/04/23 01:38:23;;;;;;;25.05;14.73;;;;;;;9.48;73.87;100426.09;5030608;28;20037;-80
2022/04/23 01:40:49;;;;;;;17.40;13.48;;;;;;;9.46;73.80;100430.53;5032579;28;20116;-80
2022/04/23 01:43:14;;;;;;;21.00;14.75;;;;;;;9.42;74.15;100420.94;5033733;28;20041;-80
2022/04/23 01:45:40;;;;;;;22.95;15.73;;;;;;;9.41;74.46;100422.72;5052686;28;20048;-81
2022/04/23 01:48:06;;;;;;;18.48;14.52;;;;;;;9.41;73.85;100428.00;5052718;28;20045;-81
2022/04/23 01:50:31;;;;;;;20.20;15.25;;;;;;;9.40;74.86;100431.56;5054138;28;20040;-81
2022/04/23 01:52:57;;;;;;;24.27;15.05;;;;;;;9.40;74.62;100426.28;5052415;28;20083;-80
2022/04/23 01:55:23;;;;;;;19.63;15.52;;;;;;;9.37;74.83;100428.09;5054287;28;20044;-81
2022/04/23 01:57:49;;;;;;;23.52;15.82;;;;;;;9.35;75.08;100427.28;5053556;28;20099;-81
2022/04/23 02:00:15;;;;;;;21.23;15.85;;;;;;;9.31;74.95;100425.63;5035786;28;20057;-80
2022/04/23 02:02:44;;;;;;;23.88;15.75;;;;;;;9.31;75.39;100422.97;5052652;28;20083;-81
2022/04/23 02:05:11;;;;;;;22.73;16.45;;;;;;;9.30;75.56;100427.41;5052559;28;20069;-80
2022/04/23 02:07:38;;;;;;;20.33;15.10;;;;;;;9.26;74.96;100429.22;5052467;28;20040;-81
2022/04/23 02:10:08;;;;;;;26.83;17.08;;;;;;;9.22;75.01;100424.94;5035943;28;20112;-81
2022/04/23 02:12:34;;;;;;;24.77;16.23;;;;;;;9.25;75.79;100426.63;5035785;28;20041;-81
2022/04/23 02:15:00;;;;;;;21.85;15.57;;;;;;;9.23;75.87;100431.94;5047122;28;20087;-81
2022/04/23 02:17:34;;;;;;;26.10;16.55;;;;;;;9.23;75.81;100431.94;5032094;28;20045;-80
2022/04/23 02:20:07;;;;;;;21.65;16.27;;;;;;;9.21;75.70;100432.88;5032397;28;20063;-80
2022/04/23 02:22:33;;;;;;;23.05;17.48;;;;;;;9.20;76.69;100432.03;5033375;28;20037;-80
2022/04/23 02:24:59;;;;;;;25.42;17.58;;;;;;;9.16;75.60;100430.34;5032971;28;20550;-81
2022/04/23 02:27:24;;;;;;;23.20;16.20;;;;;;;9.15;75.68;100427.72;5041552;28;20029;-81
2022/04/23 02:29:54;;;;;;;24.05;17.75;;;;;;;9.12;76.38;100436.59;5052146;28;20341;-80
2022/04/23 02:32:20;;;;;;;23.15;16.80;;;;;;;9.11;76.19;100440.16;5041184;28;20133;-80
2022/04/23 02:34:46;;;;;;;23.15;17.10;;;;;;;9.10;76.04;100443.69;5033288;28;20124;-81
2022/04/23 02:37:12;;;;;;;26.50;18.42;;;;;;;9.07;76.80;100440.25;5031931;28;20033;-81
2022/04/23 02:39:39;;;;;;;25.13;18.02;;;;;;;9.05;76.44;100437.66;5015279;28;20041;-81
2022/04/23 02:42:05;;;;;;;22.45;16.88;;;;;;;9.02;77.01;100433.28;5032022;28;20060;-80
2022/04/23 02:44:31;;;;;;;25.55;18.30;;;;;;;9.02;76.92;100435.06;5043105;28;20097;-80
2022/04/23 02:46:57;;;;;;;23.83;17.58;;;;;;;9.00;76.63;100437.75;5053504;28;20037;-80
2022/04/23 02:49:22;;;;;;;26.65;18.30;;;;;;;9.00;76.81;100437.75;5051587;28;20114;-80
2022/04/23 02:51:50;;;;;;;22.55;18.50;;;;;;;9.00;77.60;100442.13;5050302;28;20181;-80
2022/04/23 02:54:15;;;;;;;23.40;18.10;;;;;;;8.98;77.69;100442.19;5051436;28;20059;-80
2022/04/23 02:56:41;;;;;;;25.70;19.25;;;;;;;8.95;77.36;100430.81;5035016;28;20025;-81
2022/04/23 02:59:06;;;;;;;23.75;18.17;;;;;;;8.98;77.39;100431.63;5017965;28;20053;-81
2022/04/23 03:01:34;;;;;;;30.20;19.05;;;;;;;8.96;77.49;100432.56;5035028;28;20116;-81
2022/04/23 03:04:00;;;;;;;28.00;19.63;;;;;;;8.94;77.77;100427.31;5051164;28;20202;-80
2022/04/23 03:06:29;;;;;;;27.70;19.90;;;;;;;8.93;77.85;100422.06;5052594;28;20037;-80
2022/04/23 03:08:56;;;;;;;24.38;18.33;;;;;;;8.89;77.55;100420.41;5034456;28;20408;-80
2022/04/23 03:11:24;;;;;;;22.95;17.35;;;;;;;8.87;76.92;100425.69;5051103;28;20048;-80
2022/04/23 03:13:50;;;;;;;26.30;18.90;;;;;;;8.89;78.14;100423.03;5052541;28;20437;-80
2022/04/23 03:16:16;;;;;;;25.92;19.38;;;;;;;8.84;76.98;100420.47;4983958;28;20048;-80
2022/04/23 03:18:41;;;;;;;24.25;19.33;;;;;;;8.85;78.66;100426.63;5014822;28;20041;-80
2022/04/23 03:21:07;;;;;;;24.48;19.23;;;;;;;8.82;78.31;100417.00;5014726;28;20037;-80
2022/04/23 03:23:32;;;;;;;26.40;19.92;;;;;;;8.83;79.07;100424.03;5032326;28;20138;-80
2022/04/23 03:25:59;;;;;;;29.92;19.60;;;;;;;8.86;79.13;100423.09;5017710;28;20048;-80
2022/04/23 03:28:25;;;;;;;27.85;19.98;;;;;;;8.82;79.00;100414.38;5043968;28;20037;-80
2022/04/23 03:30:51;;;;;;;27.70;20.90;;;;;;;8.80;78.56;100414.41;5050978;28;20049;-80
2022/04/23 03:33:16;;;;;;;27.23;20.30;;;;;;;8.82;79.10;100411.72;5032219;28;20041;-81
2022/04/23 03:35:42;;;;;;;27.83;19.95;;;;;;;8.81;78.33;100418.78;5031169;28;20469;-80
2022/04/23 03:38:08;;;;;;;29.10;21.52;;;;;;;8.80;78.86;100414.41;5031950;28;20046;-80
2022/04/23 03:40:33;;;;;;;28.25;20.08;;;;;;;8.84;79.18;100412.56;5014655;28;20041;-80
2022/04/23 03:42:59;;;;;;;24.85;19.73;;;;;;;8.82;78.74;100409.09;5030622;28;20041;-80
2022/04/23 03:45:24;;;;;;;28.70;21.27;;;;;;;8.79;79.60;100407.38;5041194;28;20018;-80
2022/04/23 03:47:50;;;;;;;29.42;20.63;;;;;;;8.81;80.03;100400.31;5030831;28;20123;-80
2022/04/23 03:50:17;;;;;;;26.83;20.83;;;;;;;8.81;79.53;100400.31;5031916;28;20111;-80
2022/04/23 03:52:43;;;;;;;31.27;21.67;;;;;;;8.81;79.63;100396.78;5031585;28;20041;-80
2022/04/23 03:55:09;;;;;;;28.35;20.67;;;;;;;8.82;79.69;100404.66;5030691;28;20044;-80
2022/04/23 03:57:47;;;;;;;28.02;21.73;;;;;;;8.83;79.87;100400.28;5030354;28;20053;-80
2022/04/23 04:00:14;;;;;;;28.92;21.48;;;;;;;8.82;80.10;100399.38;5030474;28;20037;-81
2022/04/23 04:02:41;;;;;;;29.55;21.42;;;;;;;8.80;79.93;100400.31;5031424;28;20025;-80
2022/04/23 04:05:07;;;;;;;28.25;21.08;;;;;;;8.77;78.77;100393.34;5042324;28;20037;-81
2022/04/23 04:07:33;;;;;;;30.90;21.17;;;;;;;8.77;80.35;100397.75;5033658;28;20041;-80
2022/04/23 04:10:02;;;;;;;30.42;21.02;;;;;;;8.75;79.89;100392.53;5050318;28;20093;-80
2022/04/23 04:12:28;;;;;;;29.35;20.52;;;;;;;8.74;79.74;100392.53;5051372;28;20455;-80
2022/04/23 04:14:53;;;;;;;28.42;21.40;;;;;;;8.72;79.86;100389.94;5043711;28;20116;-81
2022/04/23 04:17:19;;;;;;;27.48;20.77;;;;;;;8.72;80.36;100389.94;5031360;28;20461;-80
2022/04/23 04:19:44;;;;;;;28.15;21.38;;;;;;;8.74;80.61;100395.19;5013915;28;20069;-80
2022/04/23 04:22:10;;;;;;;28.77;21.58;;;;;;;8.71;80.77;100397.91;5029916;28;20040;-80
2022/04/23 04:24:36;;;;;;;30.38;22.75;;;;;;;8.73;80.60;100393.44;5013605;28;20049;-80
2022/04/23 04:27:02;;;;;;;30.30;21.02;;;;;;;8.73;81.05;100396.06;5034750;28;20037;-80
2022/04/23 04:29:28;;;;;;;30.23;22.77;;;;;;;8.70;80.89;100396.16;5050931;28;20072;-80
2022/04/23 04:31:54;;;;;;;27.35;21.38;;;;;;;8.70;80.56;100390.88;5041018;28;20025;-80
2022/04/23 04:34:25;;;;;;;29.83;21.63;;;;;;;8.69;80.98;100390.00;5030915;28;20174;-80
2022/04/23 04:36:51;;;;;;;30.92;21.45;;;;;;;8.67;80.65;100388.28;5029717;28;20401;-81
2022/04/23 04:39:18;;;;;;;33.65;22.80;;;;;;;8.70;81.11;100381.16;5013077;28;20120;-80
2022/04/23 04:41:44;;;;;;;29.90;22.20;;;;;;;8.71;81.08;100384.69;5029806;28;20026;-80
2022/04/23 04:44:10;;;;;;;28.20;22.08;;;;;;;8.67;81.06;100381.25;5038878;28;20120;-80
2022/04/23 04:46:38;;;;;;;29.70;22.15;;;;;;;8.71;81.16;100388.22;5049533;28;20036;-80
2022/04/23 04:49:05;;;;;;;31.60;21.50;;;;;;;8.72;80.91;100391.69;5050906;28;20337;-81
2022/04/23 04:51:31;;;;;;;28.33;22.35;;;;;;;8.75;80.77;100391.63;5050820;28;20044;-80
2022/04/23 04:53:56;;;;;;;32.75;22.45;;;;;;;8.73;80.98;100394.31;5032847;28;20214;-80
2022/04/23 04:56:22;;;;;;;35.97;22.38;;;;;;;8.76;81.46;100401.31;5049566;28;20223;-80
2022/04/23 04:58:48;;;;;;;29.38;21.52;;;;;;;8.75;81.05;100397.81;5049322;28;20056;-80
2022/04/23 05:01:13;;;;;;;29.30;21.02;;;;;;;8.74;81.71;100397.81;5016383;28;20496;-80
2022/04/23 05:03:40;;;;;;;27.95;21.63;;;;;;;8.76;81.44;100401.31;5049478;28;20517;-80
2022/04/23 05:06:09;;;;;;;28.58;22.00;;;;;;;8.76;81.71;100401.31;5049296;28;20385;-80
2022/04/23 05:08:38;;;;;;;27.85;21.45;;;;;;;8.76;81.63;100399.53;5049080;28;20029;-80
2022/04/23 05:11:05;;;;;;;28.80;21.17;;;;;;;8.79;80.72;100406.50;5049443;28;20484;-80
2022/04/23 05:13:30;;;;;;;32.58;22.83;;;;;;;8.81;81.15;100408.22;5032317;28;20071;-81
2022/04/23 05:15:56;;;;;;;31.05;20.80;;;;;;;8.87;80.52;100406.34;5048182;28;20077;-80
2022/04/23 05:18:22;;;;;;;29.65;22.92;;;;;;;8.91;81.30;100415.94;5033314;28;20048;-80
2022/04/23 05:20:48;;;;;;;29.67;22.05;;;;;;;8.94;81.10;100405.31;5033358;28;20030;-80
2022/04/23 05:23:14;;;;;;;28.27;22.17;;;;;;;8.97;80.96;100397.31;5034467;28;20171;-80
2022/04/23 05:25:40;;;;;;;32.03;23.48;;;;;;;8.99;80.70;100406.06;5019307;28;20041;-80
2022/04/23 05:28:05;;;;;;;30.73;21.63;;;;;;;9.03;80.88;100399.84;5041966;28;20503;-80
2022/04/23 05:30:31;;;;;;;29.33;22.42;;;;;;;9.07;80.41;100398.84;5034641;28;20034;-80
2022/04/23 05:32:57;;;;;;;27.75;22.13;;;;;;;9.14;80.56;100404.88;5050676;28;20055;-80
2022/04/23 05:35:22;;;;;;;26.85;21.40;;;;;;;9.17;80.71;100404.78;5054445;28;20047;-80
2022/04/23 05:37:48;;;;;;;27.33;21.92;;;;;;;9.24;79.61;100403.75;5054385;28;20433;-81
2022/04/23 05:40:13;;;;;;;29.58;21.98;;;;;;;9.24;80.02;100404.59;5052903;28;20048;-81
2022/04/23 05:42:39;;;;;;;28.77;21.75;;;;;;;9.31;80.25;100410.63;5036194;28;20513;-81
2022/04/23 05:45:05;;;;;;;27.42;21.55;;;;;;;9.38;79.69;100409.56;5041454;28;20028;-81
2022/04/23 05:47:31;;;;;;;26.98;20.73;;;;;;;9.41;79.55;100411.28;5053006;28;20463;-81
2022/04/23 05:49:56;;;;;;;26.60;21.08;;;;;;;9.42;79.13;100402.44;5036311;28;20068;-81
2022/04/23 05:52:22;;;;;;;33.33;21.08;;;;;;;9.48;79.56;100407.59;5036095;28;20116;-81
2022/04/23 05:54:48;;;;;;;27.42;21.75;;;;;;;9.52;79.45;100400.44;5054208;28;20487;-81
2022/04/23 05:57:14;;;;;;;27.70;21.55;;;;;;;9.59;78.95;100409.94;5054010;28;20040;-81
2022/04/23 05:59:40;;;;;;;27.67;21.00;;;;;;;9.63;78.88;100415.13;5054146;28;20040;-81
2022/04/23 06:02:07;;;;;;;30.02;22.25;;;;;;;9.68;78.77;100412.38;5052783;28;20378;-81
2022/04/23 06:04:33;;;;;;;27.15;21.60;;;;;;;9.75;78.69;100408.69;5053926;28;20037;-81
2022/04/23 06:06:58;;;;;;;27.38;21.85;;;;;;;9.78;78.64;100400.66;5019483;28;20102;-81
2022/04/23 06:09:24;;;;;;;27.70;21.98;;;;;;;9.84;77.43;100400.50;5052658;28;20489;-81
2022/04/23 06:11:49;;;;;;;33.97;20.58;;;;;;;9.90;78.00;100400.34;5052796;28;20029;-80
2022/04/23 06:14:14;;;;;;;28.70;21.80;;;;;;;9.96;77.57;100399.31;5051995;28;20032;-81
2022/04/23 06:16:40;;;;;;;27.98;22.30;;;;;;;10.02;77.17;100395.66;5019533;28;20102;-81
2022/04/23 06:19:05;;;;;;;35.58;22.88;;;;;;;10.04;77.12;100394.69;5035798;28;20041;-81
2022/04/23 06:21:31;;;;;;;26.75;21.30;;;;;;;10.14;76.78;100400.63;5019439;28;20029;-81
2022/04/23 06:23:57;;;;;;;28.35;21.52;;;;;;;10.20;76.70;100395.13;5052115;28;20393;-81
2022/04/23 06:26:22;;;;;;;27.52;21.02;;;;;;;10.27;76.64;100391.41;5025949;28;20039;-81
2022/04/23 06:28:48;;;;;;;27.75;21.50;;;;;;;10.33;76.45;100383.31;5049086;28;20044;-81
2022/04/23 06:31:14;;;;;;;26.05;21.05;;;;;;;10.36;76.24;100384.16;5032336;28;20029;-81
2022/04/23 06:33:41;;;;;;;27.40;20.55;;;;;;;10.45;75.86;100390.06;5033307;28;20037;-81
2022/04/23 06:36:10;;;;;;;27.92;20.98;;;;;;;10.53;75.77;100389.81;5016004;28;20536;-81
2022/04/23 06:38:36;;;;;;;28.60;22.25;;;;;;;10.59;75.51;100388.81;5015793;28;20119;-81
2022/04/23 06:41:02;;;;;;;27.92;22.35;;;;;;;10.65;74.74;100378.88;5032073;28;20034;-81
2022/04/23 06:43:27;;;;;;;31.60;22.20;;;;;;;10.70;74.99;100387.56;5037181;28;20481;-81
2022/04/23 06:45:53;;;;;;;25.77;20.88;;;;;;;10.79;73.59;100390.88;5051770;28;20067;-81
2022/04/23 06:48:18;;;;;;;26.58;20.88;;;;;;;10.86;73.80;100382.69;5051796;28;20459;-82
2022/04/23 06:50:43;;;;;;;28.67;22.10;;;;;;;10.91;73.36;100388.72;5035025;28;20143;-81
2022/04/23 06:53:09;;;;;;;29.15;22.05;;;;;;;10.98;73.46;100392.91;5035047;28;20051;-81
2022/04/23 06:55:34;;;;;;;27.20;20.10;;;;;;;11.06;73.33;100397.09;5053049;28;20037;-81
2022/04/23 06:58:00;;;;;;;24.38;20.10;;;;;;;11.10;72.88;100381.06;5052652;28;20361;-81
2022/04/23 07:00:26;;;;;;;25.88;21.02;;;;;;;11.17;72.86;100387.88;5053494;28;20417;-81
2022/04/23 07:02:52;;;;;;;24.98;20.30;;;;;;;11.28;72.32;100392.00;5051350;28;20545;-81
2022/04/23 07:05:18;;;;;;;28.50;20.45;;;;;;;11.34;72.29;100378.53;5051543;28;20226;-81
2022/04/23 07:07:55;;;;;;;27.80;21.05;;;;;;;11.42;71.72;100389.75;5034598;28;20167;-81
2022/04/23 07:10:21;;;;;;;26.63;21.42;;;;;;;11.46;71.33;100378.13;5035027;28;20105;-81
2022/04/23 07:12:46;;;;;;;27.55;20.67;;;;;;;11.56;71.32;100384.88;5052357;28;20028;-81
2022/04/23 07:15:13;;;;;;;25.27;20.02;;;;;;;11.67;70.95;100375.69;5043826;28;20068;-81
2022/04/23 07:17:38;;;;;;;25.25;20.75;;;;;;;11.78;71.34;100373.53;5031250;28;20478;-81
2022/04/23 07:20:04;;;;;;;24.95;20.77;;;;;;;11.90;70.22;100367.84;5031383;28;20175;-81
2022/04/23 07:22:29;;;;;;;25.88;20.65;;;;;;;12.01;70.48;100364.81;5031217;28;20346;-81
2022/04/23 07:24:55;;;;;;;25.08;19.52;;;;;;;12.12;69.60;100367.97;5047482;28;20132;-81
2022/04/23 07:27:20;;;;;;;25.83;20.48;;;;;;;12.22;68.60;100371.16;5039829;28;20037;-81
2022/04/23 07:29:46;;;;;;;29.67;20.65;;;;;;;12.31;68.86;100365.47;5051002;28;20037;-81
2022/04/23 07:32:11;;;;;;;25.35;20.13;;;;;;;12.41;68.56;100364.25;5022401;28;20550;-81
2022/04/23 07:37:30;;;;;;;25.63;20.65;;;;;;;12.57;67.18;100359.22;5031928;28;20098;-82
2022/04/23 07:40:10;;;;;;;26.05;18.30;;;;;;;12.66;67.24;100358.88;5031206;28;20083;-82
2022/04/23 07:42:36;;;;;;;30.25;19.35;;;;;;;12.80;66.45;100368.09;5030790;28;20208;-81
2022/04/23 07:45:01;;;;;;;27.27;20.17;;;;;;;12.91;66.61;100369.41;5031552;28;20031;-81
2022/04/23 07:47:28;;;;;;;26.25;19.67;;;;;;;13.02;65.15;100365.47;5034112;28;20041;-81
2022/04/23 07:49:53;;;;;;;23.45;18.95;;;;;;;13.10;64.94;100360.72;5052229;28;20071;-81
2022/04/23 07:52:19;;;;;;;23.45;18.98;;;;;;;13.24;65.31;100357.50;5050504;28;20373;-82
2022/04/23 07:54:45;;;;;;;22.85;18.13;;;;;;;13.36;63.94;100362.34;5052311;28;20043;-81
2022/04/23 07:57:12;;;;;;;23.13;18.30;;;;;;;13.42;63.37;100353.25;5051727;28;20033;-82
2022/04/23 07:59:40;;;;;;;23.63;17.85;;;;;;;13.45;61.95;100348.69;5051904;28;20049;-80
2022/04/23 08:02:05;;;;;;;24.52;18.08;;;;;;;13.51;62.35;100348.41;5050553;28;20059;-81
2022/04/23 08:04:31;;;;;;;25.77;18.15;;;;;;;13.59;62.06;100345.44;5050337;28;20178;-81
2022/04/23 08:06:57;;;;;;;22.27;17.35;;;;;;;13.70;61.60;100353.84;5017393;28;20079;-80
2022/04/23 08:09:23;;;;;;;25.77;19.02;;;;;;;13.76;61.40;100344.72;5050380;28;20443;-81
2022/04/23 08:11:48;;;;;;;22.17;17.50;;;;;;;13.85;61.01;100349.66;5050376;28;20056;-81
2022/04/23 08:14:14;;;;;;;22.73;18.38;;;;;;;13.90;61.04;100336.16;5049496;28;20033;-80
2022/04/23 08:16:39;;;;;;;23.75;18.80;;;;;;;13.98;60.58;100350.84;5030359;28;20477;-81
2022/04/23 08:19:05;;;;;;;21.08;16.98;;;;;;;14.11;60.16;100342.31;5013900;28;20044;-81
2022/04/23 08:21:30;;;;;;;21.83;17.02;;;;;;;14.07;59.85;100338.03;5030320;28;20485;-81
2022/04/23 08:23:56;;;;;;;22.50;18.20;;;;;;;14.10;60.02;100330.81;5030134;28;20041;-80
2022/04/23 08:26:21;;;;;;;21.30;18.60;;;;;;;14.18;59.79;100328.66;5029265;28;20108;-81
2022/04/23 08:31:31;;;;;;;24.67;18.88;;;;;;;14.16;59.41;100334.97;5037840;28;20025;-80
2022/04/23 08:33:59;;;;;;;23.35;18.83;;;;;;;14.12;59.16;100328.06;5050011;28;20511;-80
2022/04/23 08:36:29;;;;;;;26.98;18.83;;;;;;;14.14;59.42;100323.53;5033923;28;20051;-80
2022/04/23 08:38:56;;;;;;;22.38;17.77;;;;;;;14.26;59.18;100317.66;5033818;28;20124;-81
2022/04/23 08:41:30;;;;;;;25.25;19.35;;;;;;;14.43;58.71;100324.00;5033502;28;20029;-81
2022/04/23 08:43:58;;;;;;;20.17;17.35;;;;;;;14.58;57.75;100312.69;5041143;28;20048;-81
2022/04/23 08:46:26;;;;;;;28.13;17.98;;;;;;;14.78;57.83;100320.59;5030223;28;20537;-81
2022/04/23 08:49:01;;;;;;;24.42;19.10;;;;;;;14.93;57.95;100323.47;5032937;28;20115;-81
2022/04/23 08:51:32;;;;;;;23.77;18.80;;;;;;;14.97;57.38;100314.38;5049509;28;20113;-81
2022/04/23 08:54:01;;;;;;;;;;;;;;;15.05;58.00;100334.38;5050116;28;20044;-81
2022/04/23 08:56:26;;;;;;;22.27;18.15;;;;;;;15.07;56.97;100331.66;5051246;28;20360;-81
2022/04/23 08:58:56;;;;;;;24.17;17.73;;;;;;;15.23;57.14;100338.00;5033119;28;20056;-81
2022/04/23 09:01:22;;;;;;;20.40;17.58;;;;;;;15.36;56.04;100327.56;5033774;28;20129;-81
2022/04/23 09:03:48;;;;;;;24.27;17.70;;;;;;;15.55;54.72;100329.28;5033000;28;20507;-81
2022/04/23 09:06:15;;;;;;;21.73;17.77;;;;;;;15.69;54.18;100332.13;5049732;28;20045;-81
2022/04/23 09:09:07;;;;;;;21.63;16.92;;;;;;;15.70;54.92;100333.88;5049482;28;20033;-81
2022/04/23 09:11:37;;;;;;;27.13;18.30;;;;;;;15.70;54.51;100323.19;5049838;28;20033;-81
2022/04/23 09:14:06;;;;;;;19.45;16.67;;;;;;;15.79;54.43;100322.75;5050570;28;20119;-81
2022/04/23 09:25:07;;;;;;;25.42;18.60;;;;;;;15.89;53.45;100337.34;5048401;28;20048;-81
2022/04/23 09:27:34;;;;;;;21.80;18.27;;;;;;;15.86;53.45;100337.50;5037840;28;20200;-81
2022/04/23 09:30:08;;;;;;;21.58;17.55;;;;;;;15.89;54.88;100336.47;5049494;28;20029;-81
2022/04/23 09:32:34;;;;;;;24.60;18.77;;;;;;;16.01;54.54;100332.31;5029137;28;20041;-81
2022/04/23 09:35:04;;;;;;;25.88;19.85;;;;;;;16.29;53.26;100326.34;5030831;28;20025;-82
2022/04/23 09:40:24;;;;;;;24.25;20.10;;;;;;;16.54;53.27;100334.78;5030842;28;20099;-83
2022/04/23 09:43:00;;;;;;;21.83;18.85;;;;;;;16.69;52.35;100346.44;5029329;28;20029;-81
2022/04/23 09:45:29;;;;;;;25.05;20.95;;;;;;;16.86;51.38;100333.97;5038431;28;20028;-81
2022/04/23 09:47:55;;;;;;;23.58;19.52;;;;;;;17.06;50.49;100330.16;5032620;28;20473;-82
2022/04/23 09:50:21;;;;;;;23.13;20.15;;;;;;;17.22;49.85;100347.06;5049470;28;20025;-81
2022/04/23 09:52:46;;;;;;;23.88;19.92;;;;;;;17.20;50.37;100338.25;5032479;28;20484;-81
2022/04/23 09:55:13;;;;;;;25.15;19.20;;;;;;;17.33;50.15;100338.41;5049593;28;20087;-82
2022/04/23 09:57:38;;;;;;;27.08;19.33;;;;;;;17.51;50.14;100332.00;5032376;28;20049;-81
2022/04/23 10:00:07;;;;;;;21.67;18.55;;;;;;;17.75;49.39;100335.03;5016583;28;20132;-82
2022/04/23 10:02:34;;;;;;;23.30;19.52;;;;;;;17.89;48.45;100325.34;5035402;28;20052;-82
2022/04/23 10:05:02;;;;;;;22.67;19.52;;;;;;;17.98;48.28;100319.44;5036215;28;20036;-82
2022/04/23 10:07:31;;;;;;;24.55;18.45;;;;;;;18.10;47.82;100329.41;5052437;28;20060;-82
2022/04/23 10:10:03;;;;;;;26.20;19.95;;;;;;;17.89;47.48;100320.00;5052864;28;20063;-82
2022/04/23 10:12:33;;;;;;;28.40;19.77;;;;;;;17.69;48.34;100324.69;5035860;28;20473;-82
2022/04/23 10:15:00;;;;;;;24.10;19.63;;;;;;;17.70;48.56;100320.19;5045412;28;20084;-81
2022/04/23 10:17:28;;;;;;;24.35;20.02;;;;;;;17.90;48.29;100316.34;5032672;28;20063;-82
2022/04/23 10:19:55;;;;;;;26.15;20.15;;;;;;;17.99;47.62;100313.13;5032747;28;20071;-82
2022/04/23 10:22:31;;;;;;;24.05;18.90;;;;;;;18.00;48.06;100315.72;5033930;28;20087;-82
2022/04/23 10:25:25;;;;;;;27.75;20.55;;;;;;;18.20;47.59;100303.75;5034541;28;20076;-82
2022/04/23 10:27:55;;;;;;;23.17;18.83;;;;;;;18.24;47.46;100305.28;5043685;28;20147;-81
2022/04/23 10:30:21;;;;;;;23.00;19.70;;;;;;;18.34;47.64;100307.38;5052854;28;20036;-82
2022/04/23 10:32:47;;;;;;;22.33;19.17;;;;;;;18.54;46.38;100295.41;5001826;28;20354;-82
2022/04/23 10:35:19;;;;;;;23.15;20.40;;;;;;;18.63;45.72;100298.34;5015944;28;20370;-82
2022/04/23 10:37:48;;;;;;;34.45;19.17;;;;;;;18.70;45.18;100296.16;5033303;28;20061;-82
2022/04/23 10:40:20;;;;;;;31.02;19.30;;;;;;;18.87;45.76;100297.78;5016184;28;20041;-82
2022/04/23 10:43:08;;;;;;;25.75;19.83;;;;;;;18.97;45.65;100296.22;5031848;28;20440;-82
2022/04/23 10:45:35;;;;;;;21.88;19.52;;;;;;;19.12;45.13;100305.06;5041976;28;20040;-82
2022/04/23 10:48:19;;;;;;;26.48;19.77;;;;;;;19.33;45.40;100297.41;5035811;28;20086;-82
2022/04/23 10:51:04;;;;;;;27.65;18.58;;;;;;;19.59;45.11;100297.50;5052199;28;20166;-82
2022/04/23 10:53:39;;;;;;;25.13;19.35;;;;;;;19.70;43.53;100294.94;5051137;28;20055;-82
2022/04/23 10:56:12;;;;;;;31.52;20.40;;;;;;;19.57;43.50;100302.94;5051805;28;20481;-82
2022/04/23 10:58:38;;;;;;;22.83;19.30;;;;;;;19.53;42.93;100299.63;5034892;28;20068;-82
2022/04/23 11:01:20;;;;;;;22.92;19.48;;;;;;;19.55;44.18;100300.38;5018598;28;20354;-82
2022/04/23 11:03:56;;;;;;;27.00;21.17;;;;;;;19.63;42.96;100294.47;5034987;28;20037;-82
2022/04/23 11:12:33;;;;;;;35.85;18.92;;;;;;;20.05;43.33;100286.25;5050815;28;20485;-83
2022/04/23 11:15:00;;;;;;;23.42;19.15;;;;;;;20.20;42.12;100295.94;5043424;28;20059;-83
2022/04/23 11:17:30;;;;;;;28.05;19.55;;;;;;;20.23;42.27;100290.34;5031527;28;20051;-82
2022/04/23 11:19:56;;;;;;;25.23;19.55;;;;;;;20.32;41.90;100275.38;5031678;28;20037;-82
2022/04/23 11:22:22;;;;;;;23.88;19.30;;;;;;;20.53;41.58;100278.38;5031332;28;20052;-82
2022/04/23 11:24:49;;;;;;;22.95;20.05;;;;;;;20.73;41.38;100275.13;5030519;28;20563;-82
2022/04/23 11:27:25;;;;;;;29.45;20.85;;;;;;;20.71;41.02;100293.19;5041469;28;20081;-83
2022/04/23 11:29:54;;;;;;;27.33;19.67;;;;;;;20.64;41.28;100278.47;5051338;28;20146;-82
2022/04/23 11:32:30;;;;;;;23.80;20.33;;;;;;;20.49;41.00;100277.72;5030727;28;20038;-83
2022/04/23 11:34:57;;;;;;;25.65;19.75;;;;;;;20.25;41.47;100280.38;5048049;28;20107;-82
2022/04/23 11:37:36;;;;;;;25.45;20.38;;;;;;;20.24;41.30;100275.09;5047652;28;20437;-82